createdAt,value
2023-02-22T00:02:13.168Z,101433.50
2023-02-22T00:04:45.727Z,101430.63
2023-02-22T00:07:21.438Z,101430.31
2023-02-22T00:09:53.956Z,101432.34
2023-02-22T00:12:29.228Z,101431.91
2023-02-22T00:15:03.208Z,101434.28
2023-02-22T00:17:35.784Z,101436.91
2023-02-22T00:20:09.981Z,101437.59
2023-02-22T00:22:46.254Z,101437.25
2023-02-22T00:25:20.311Z,101429.84
2023-02-22T00:27:53.812Z,101429.50
2023-02-22T00:30:28.903Z,101434.06
2023-02-22T00:33:01.683Z,101430.53
2023-02-22T00:35:34.287Z,101432.38
2023-02-22T00:38:06.991Z,101434.53
2023-02-22T00:40:40.305Z,101426.66
2023-02-22T00:43:12.960Z,101425.06
2023-02-22T00:45:49.111Z,101427.38
2023-02-22T00:48:23.647Z,101433.28
2023-02-22T00:50:57.672Z,101426.31
2023-02-22T00:53:30.436Z,101426.88
2023-02-22T00:56:02.979Z,101423.38
2023-02-22T00:58:35.566Z,101426.66
2023-02-22T01:01:09.550Z,101423.00
2023-02-22T01:03:44.119Z,101427.00
2023-02-22T01:06:17.085Z,101430.75
2023-02-22T01:08:49.852Z,101424.38
2023-02-22T01:11:23.390Z,101427.56
2023-02-22T01:13:57.766Z,101414.03
2023-02-22T01:16:31.976Z,101422.00
2023-02-22T01:19:06.527Z,101415.28
2023-02-22T01:21:41.195Z,101416.63
2023-02-22T01:24:16.451Z,101413.31
2023-02-22T01:26:51.938Z,101407.75
2023-02-22T01:29:24.510Z,101403.09
2023-02-22T01:31:58.589Z,101398.06
2023-02-22T01:34:33.051Z,101400.47
2023-02-22T01:37:06.419Z,101394.78
2023-02-22T01:39:39.059Z,101397.06
2023-02-22T01:42:12.271Z,101391.44
2023-02-22T01:44:44.840Z,101388.97
2023-02-22T01:47:18.872Z,101396.97
2023-02-22T01:49:53.718Z,101385.22
2023-02-22T01:52:26.418Z,101389.31
2023-02-22T01:55:00.216Z,101383.84
2023-02-22T01:57:35.625Z,101388.63
2023-02-22T02:00:11.126Z,101373.03
2023-02-22T02:02:52.118Z,101369.50
2023-02-22T02:05:31.303Z,101367.13
2023-02-22T02:08:06.960Z,101365.41
2023-02-22T02:10:40.175Z,101365.16
2023-02-22T02:13:12.759Z,101358.59
2023-02-22T02:15:45.899Z,101354.03
2023-02-22T02:18:20.226Z,101350.84
2023-02-22T02:21:01.176Z,101347.66
2023-02-22T02:23:49.494Z,101337.75
2023-02-22T02:26:41.716Z,101336.84
2023-02-22T02:29:44.201Z,101339.56
2023-02-22T02:32:28.022Z,101333.31
2023-02-22T02:35:05.393Z,101331.38
2023-02-22T02:37:43.088Z,101331.72
2023-02-22T02:40:21.938Z,101333.22
2023-02-22T02:42:59.417Z,101320.44
2023-02-22T02:45:36.266Z,101320.78
2023-02-22T02:48:11.142Z,101318.06
2023-02-22T02:50:46.309Z,101314.19
2023-02-22T02:53:21.811Z,101307.38
2023-02-22T02:55:55.649Z,101299.19
2023-02-22T02:58:29.080Z,101296.53
2023-02-22T03:01:04.419Z,101301.91
2023-02-22T03:03:47.608Z,101290.41
2023-02-22T03:06:38.215Z,101285.97
2023-02-22T03:09:16.937Z,101284.59
2023-02-22T03:11:52.767Z,101268.22
2023-02-22T03:14:28.099Z,101272.88
2023-02-22T03:17:03.476Z,101265.03
2023-02-22T03:19:39.319Z,101256.50
2023-02-22T03:22:14.741Z,101257.28
2023-02-22T03:24:52.977Z,101253.06
2023-02-22T03:27:29.948Z,101253.41
2023-02-22T03:30:06.581Z,101248.84
2023-02-22T03:32:42.263Z,101252.72
2023-02-22T03:35:19.618Z,101242.47
2023-02-22T03:37:55.457Z,101235.44
2023-02-22T03:40:30.052Z,101238.88
2023-02-22T03:43:05.908Z,101230.97
2023-02-22T03:45:43.514Z,101227.22
2023-02-22T03:48:18.643Z,101227.22
2023-02-22T03:50:53.017Z,101219.38
2023-02-22T03:53:26.765Z,101214.28
2023-02-22T03:56:00.184Z,101219.03
2023-02-22T03:58:33.407Z,101210.28
2023-02-22T04:01:06.332Z,101204.13
2023-02-22T04:03:40.206Z,101205.72
2023-02-22T04:06:14.186Z,101208.00
2023-02-22T04:08:46.860Z,101200.84
2023-02-22T04:11:19.472Z,101200.06
2023-02-22T04:13:52.444Z,101194.69
2023-02-22T04:16:25.002Z,101197.53
2023-02-22T04:18:58.146Z,101190.34
2023-02-22T04:21:32.144Z,101195.59
2023-02-22T04:24:06.029Z,101191.16
2023-02-22T04:26:38.657Z,101185.94
2023-02-22T04:29:12.724Z,101188.78
2023-02-22T04:31:47.147Z,101179.19
2023-02-22T04:34:20.944Z,101177.97
2023-02-22T04:36:55.419Z,101175.91
2023-02-22T04:39:28.492Z,101174.69
2023-02-22T04:42:01.116Z,101175.22
2023-02-22T04:44:33.860Z,101178.75
2023-02-22T04:47:06.486Z,101179.88
2023-02-22T04:49:39.363Z,101179.00
2023-02-22T04:52:15.948Z,101177.84
2023-02-22T04:54:48.952Z,101182.50
2023-02-22T04:57:21.551Z,101179.00
2023-02-22T04:59:55.883Z,101179.34
2023-02-22T05:02:29.600Z,101178.78
2023-02-22T05:05:02.183Z,101171.72
2023-02-22T05:07:36.132Z,101161.69
2023-02-22T05:10:08.825Z,101153.50
2023-02-22T05:12:41.468Z,101154.63
2023-02-22T05:15:17.471Z,101157.13
2023-02-22T05:17:50.140Z,101163.06
2023-02-22T05:20:24.951Z,101167.72
2023-02-22T05:22:59.785Z,101156.13
2023-02-22T05:25:33.268Z,101139.16
2023-02-22T05:28:08.640Z,101147.72
2023-02-22T05:30:41.935Z,101148.28
2023-02-22T05:33:14.558Z,101143.28
2023-02-22T05:35:47.236Z,101141.22
2023-02-22T05:38:21.309Z,101139.75
2023-02-22T05:40:53.920Z,101132.59
2023-02-22T05:43:26.738Z,101129.84
2023-02-22T05:45:59.283Z,101118.56
2023-02-22T05:48:32.185Z,101107.78
2023-02-22T05:51:04.873Z,101096.94
2023-02-22T05:53:38.776Z,101092.88
2023-02-22T05:56:11.424Z,101078.66
2023-02-22T05:58:43.982Z,101072.06
2023-02-22T06:01:17.056Z,101078.75
2023-02-22T06:03:50.280Z,101091.63
2023-02-22T06:06:22.879Z,101104.91
2023-02-22T06:08:56.770Z,101093.19
2023-02-22T06:11:29.248Z,101092.41
2023-02-22T06:14:01.787Z,101096.63
2023-02-22T06:16:34.380Z,101091.53
2023-02-22T06:19:07.004Z,101100.50
2023-02-22T06:21:39.531Z,101100.31
2023-02-22T06:24:13.589Z,101095.94
2023-02-22T06:26:46.539Z,101098.56
2023-02-22T06:29:19.105Z,101084.22
2023-02-22T06:31:51.729Z,101085.00
2023-02-22T06:34:24.440Z,101101.41
2023-02-22T06:36:59.108Z,101097.09
2023-02-22T06:39:34.116Z,101094.25
2023-02-22T06:42:06.872Z,101097.66
2023-02-22T06:44:39.562Z,101105.19
2023-02-22T06:47:12.181Z,101095.63
2023-02-22T06:49:44.929Z,101096.44
2023-02-22T06:52:18.763Z,101093.00
2023-02-22T06:54:52.798Z,101091.22
2023-02-22T06:57:25.789Z,101093.25
2023-02-22T06:59:58.444Z,101096.66
2023-02-22T07:02:31.131Z,101105.88
2023-02-22T07:05:03.751Z,101112.81
2023-02-22T07:07:36.336Z,101119.78
2023-02-22T07:10:16.848Z,101118.97
2023-02-22T07:12:49.991Z,101121.59
2023-02-22T07:15:23.710Z,101121.72
2023-02-22T07:17:56.613Z,101124.31
2023-02-22T07:20:30.166Z,101123.53
2023-02-22T07:23:02.767Z,101123.75
2023-02-22T07:25:36.774Z,101123.44
2023-02-22T07:28:10.892Z,101128.19
2023-02-22T07:30:43.847Z,101124.31
2023-02-22T07:33:16.493Z,101123.09
2023-02-22T07:35:49.678Z,101107.16
2023-02-22T07:38:22.216Z,101105.66
2023-02-22T07:40:57.881Z,101103.63
2023-02-22T07:43:31.546Z,101099.31
2023-02-22T07:46:05.242Z,101092.34
2023-02-22T07:48:37.860Z,101103.19
2023-02-22T07:51:10.901Z,101100.91
2023-02-22T07:53:43.647Z,101103.28
2023-02-22T07:56:18.218Z,101098.97
2023-02-22T07:58:50.801Z,101088.03
2023-02-22T08:01:24.348Z,101090.78
2023-02-22T08:03:57.051Z,101087.25
2023-02-22T08:06:30.155Z,101090.78
2023-02-22T08:09:02.754Z,101091.13
2023-02-22T08:11:36.731Z,101084.50
2023-02-22T08:14:09.354Z,101076.56
2023-02-22T08:16:42.087Z,101072.00
2023-02-22T08:19:14.628Z,101071.88
2023-02-22T08:21:47.461Z,101064.84
2023-02-22T08:24:20.191Z,101058.72
2023-02-22T08:26:54.364Z,101047.53
2023-02-22T08:29:33.335Z,101038.97
2023-02-22T08:32:06.634Z,101038.66
2023-02-22T08:34:39.179Z,101037.06
2023-02-22T08:37:11.834Z,101047.53
2023-02-22T08:39:44.508Z,101036.25
2023-02-22T08:42:18.549Z,101036.38
2023-02-22T08:44:51.142Z,101045.50
2023-02-22T08:47:23.828Z,101040.25
2023-02-22T08:49:56.504Z,101040.69
2023-02-22T08:52:29.203Z,101041.13
2023-02-22T08:55:01.829Z,101036.56
2023-02-22T08:57:35.789Z,101028.81
2023-02-22T09:00:08.942Z,101029.00
2023-02-22T09:02:41.629Z,101040.88
2023-02-22T09:05:14.239Z,101044.72
2023-02-22T09:07:46.875Z,101058.81
2023-02-22T09:10:21.441Z,101065.50
2023-02-22T09:12:56.525Z,101077.41
2023-02-22T09:15:29.819Z,101066.75
2023-02-22T09:18:02.896Z,101089.13
2023-02-22T09:20:36.182Z,101098.84
2023-02-22T09:23:09.878Z,101106.97
2023-02-22T09:25:42.537Z,101086.88
2023-02-22T09:28:16.507Z,101071.97
2023-02-22T09:30:49.648Z,101074.38
2023-02-22T09:33:23.141Z,101070.59
2023-02-22T09:35:55.706Z,101080.47
2023-02-22T09:38:30.093Z,101069.97
2023-02-22T09:41:09.026Z,101062.94
2023-02-22T09:43:46.528Z,101068.81
2023-02-22T09:46:22.867Z,101063.47
2023-02-22T09:48:59.192Z,101062.41
2023-02-22T09:51:35.937Z,101064.69
2023-02-22T09:54:14.554Z,101075.81
2023-02-22T09:56:48.230Z,101082.00
2023-02-22T09:59:26.995Z,101085.94
2023-02-22T10:02:06.463Z,101074.22
2023-02-22T10:04:42.526Z,101079.69
2023-02-22T10:07:20.975Z,101079.69
2023-02-22T10:09:56.722Z,101078.97
2023-02-22T10:12:30.984Z,101084.13
2023-02-22T10:15:35.178Z,101079.78
2023-02-22T10:18:26.308Z,101091.53
2023-02-22T10:21:02.463Z,101082.97
2023-02-22T10:23:37.467Z,101088.94
2023-02-22T10:26:16.208Z,101079.94
2023-02-22T10:28:53.746Z,101071.41
2023-02-22T10:31:29.626Z,101065.81
2023-02-22T10:34:03.649Z,101057.59
2023-02-22T10:36:39.216Z,101058.56
2023-02-22T10:39:16.443Z,101045.75
2023-02-22T10:41:50.878Z,101047.06
2023-02-22T10:44:23.926Z,101034.44
2023-02-22T10:46:59.779Z,101038.81
2023-02-22T10:49:36.107Z,101048.28
2023-02-22T10:52:15.365Z,101054.78
2023-02-22T10:54:49.202Z,101056.03
2023-02-22T10:57:24.069Z,101060.72
2023-02-22T10:59:57.795Z,101051.69
2023-02-22T11:02:32.992Z,101048.69
2023-02-22T11:05:06.138Z,101042.84
2023-02-22T11:07:39.033Z,101046.47
2023-02-22T11:10:11.758Z,101045.47
2023-02-22T11:12:44.725Z,101039.56
2023-02-22T11:15:28.015Z,101041.28
2023-02-22T11:18:02.367Z,101035.81
2023-02-22T11:20:38.613Z,101035.53
2023-02-22T11:23:12.367Z,101037.53
2023-02-22T11:25:45.068Z,101025.38
2023-02-22T11:28:20.779Z,101028.19
2023-02-22T11:30:53.524Z,101030.22
2023-02-22T11:33:29.398Z,101021.69
2023-02-22T11:36:04.871Z,101027.16
2023-02-22T11:38:38.351Z,101014.25
2023-02-22T11:41:15.748Z,101020.63
2023-02-22T11:43:49.850Z,101018.25
2023-02-22T11:46:23.541Z,101014.50
2023-02-22T11:49:00.191Z,101017.66
2023-02-22T11:51:53.665Z,101015.69
2023-02-22T11:54:31.748Z,101011.88
2023-02-22T11:57:10.024Z,101017.13
2023-02-22T11:59:48.122Z,101014.81
2023-02-22T12:02:30.486Z,101014.94
2023-02-22T12:05:13.212Z,101008.94
2023-02-22T12:07:52.333Z,101005.91
2023-02-22T12:10:42.536Z,101007.13
2023-02-22T12:13:27.035Z,101015.47
2023-02-22T12:16:04.831Z,101013.28
2023-02-22T12:18:40.647Z,101014.03
2023-02-22T12:21:16.893Z,101021.84
2023-02-22T12:23:53.049Z,101020.44
2023-02-22T12:26:27.350Z,101011.06
2023-02-22T12:29:05.147Z,101018.59
2023-02-22T12:31:40.362Z,101016.25
2023-02-22T12:34:19.929Z,101007.25
2023-02-22T12:36:55.555Z,101007.94
2023-02-22T12:39:40.994Z,101010.25
2023-02-22T12:42:22.815Z,101013.63
2023-02-22T12:44:57.694Z,101005.72
2023-02-22T12:47:34.554Z,101004.25
2023-02-22T12:50:14.204Z,101005.84
2023-02-22T12:52:53.083Z,101006.75
2023-02-22T12:55:27.329Z,100997.78
2023-02-22T12:58:07.038Z,100997.84
2023-02-22T13:00:42.736Z,100999.78
2023-02-22T13:03:25.610Z,101005.66
2023-02-22T13:06:01.845Z,101001.47
2023-02-22T13:08:40.154Z,100999.22
2023-02-22T13:11:17.710Z,100997.25
2023-02-22T13:13:54.603Z,100997.31
2023-02-22T13:16:30.982Z,100997.94
2023-02-22T13:19:05.922Z,100992.94
2023-02-22T13:21:44.170Z,100998.53
2023-02-22T13:24:20.624Z,100998.31
2023-02-22T13:26:55.174Z,100995.19
2023-02-22T13:29:30.938Z,100997.69
2023-02-22T13:32:13.018Z,100994.97
2023-02-22T13:34:59.461Z,100998.13
2023-02-22T13:37:42.167Z,100992.22
2023-02-22T13:40:27.289Z,100993.84
2023-02-22T13:43:16.403Z,101000.09
2023-02-22T13:45:56.680Z,100985.22
2023-02-22T13:48:38.771Z,100992.78
2023-02-22T13:51:14.895Z,100996.31
2023-02-22T13:53:51.315Z,100995.88
2023-02-22T13:56:26.035Z,100997.09
2023-02-22T13:59:00.018Z,101001.00
2023-02-22T14:01:44.105Z,100996.25
2023-02-22T14:04:38.215Z,100997.16
2023-02-22T14:07:33.832Z,101003.06
2023-02-22T14:10:06.474Z,101004.31
2023-02-22T14:12:50.267Z,101009.81
2023-02-22T14:15:31.234Z,101014.50
2023-02-22T14:18:05.153Z,101025.53
2023-02-22T14:20:38.581Z,101022.78
2023-02-22T14:23:33.439Z,101024.41
2023-02-22T14:26:13.727Z,101029.03
2023-02-22T14:28:53.090Z,101033.34
2023-02-22T14:31:36.072Z,101038.22
2023-02-22T14:34:11.111Z,101036.50
2023-02-22T14:36:46.607Z,101039.69
2023-02-22T14:39:21.692Z,101030.63
2023-02-22T14:42:01.429Z,101038.13
2023-02-22T14:44:37.890Z,101042.72
2023-02-22T14:47:16.325Z,101048.25
2023-02-22T14:49:52.014Z,101047.78
2023-02-22T14:52:26.367Z,101042.75
2023-02-22T14:55:04.373Z,101045.09
2023-02-22T14:57:42.191Z,101049.41
2023-02-22T15:00:30.566Z,101050.47
2023-02-22T15:03:03.830Z,101059.13
2023-02-22T15:05:38.480Z,101055.06
2023-02-22T15:08:13.612Z,101050.31
2023-02-22T15:10:47.065Z,101053.84
2023-02-22T15:13:20.294Z,101056.06
2023-02-22T15:16:00.520Z,101061.91
2023-02-22T15:18:36.340Z,101068.16
2023-02-22T15:21:13.451Z,101060.25
2023-02-22T15:23:46.657Z,101068.09
2023-02-22T15:26:26.374Z,101074.31
2023-02-22T15:29:00.052Z,101077.28
2023-02-22T15:31:34.681Z,101069.44
2023-02-22T15:34:11.218Z,101075.66
2023-02-22T15:36:44.659Z,101084.59
2023-02-22T15:39:20.352Z,101080.28
2023-02-22T15:42:02.073Z,101088.09
2023-02-22T15:44:38.421Z,101085.72
2023-02-22T15:47:17.314Z,101079.69
2023-02-22T15:50:05.896Z,101080.09
2023-02-22T15:52:38.621Z,101088.34
2023-02-22T15:55:11.788Z,101082.44
2023-02-22T15:57:45.028Z,101076.44
2023-02-22T16:00:22.046Z,101079.97
2023-02-22T16:02:58.359Z,101072.13
2023-02-22T16:05:34.996Z,101079.19
2023-02-22T16:08:14.220Z,101076.44
2023-02-22T16:10:50.604Z,101072.47
2023-02-22T16:13:31.969Z,101067.94
2023-02-22T16:16:06.606Z,101065.78
2023-02-22T16:18:41.397Z,101072.97
2023-02-22T16:21:14.812Z,101075.28
2023-02-22T16:23:48.307Z,101075.28
2023-02-22T16:26:25.439Z,101080.03
2023-02-22T16:28:59.297Z,101082.34
2023-02-22T16:31:33.793Z,101083.81
2023-02-22T16:34:08.852Z,101081.47
2023-02-22T16:36:42.134Z,101079.06
2023-02-22T16:39:19.509Z,101079.06
2023-02-22T16:41:52.261Z,101092.03
2023-02-22T16:44:25.458Z,101094.06
2023-02-22T16:46:59.186Z,101095.06
2023-02-22T16:49:33.273Z,101101.69
2023-02-22T16:52:08.344Z,101091.59
2023-02-22T16:54:42.836Z,101097.94
2023-02-22T16:57:18.020Z,101101.84
2023-02-22T16:59:52.899Z,101102.41
2023-02-22T17:02:27.829Z,101105.81
2023-02-22T17:05:01.887Z,101107.09
2023-02-22T17:07:34.706Z,101095.78
2023-02-22T17:10:07.993Z,101104.00
2023-02-22T17:12:43.866Z,101115.41
2023-02-22T17:15:21.757Z,101104.31
2023-02-22T17:17:54.800Z,101096.50
2023-02-22T17:20:30.979Z,101107.91
2023-02-22T17:23:04.853Z,101104.69
2023-02-22T17:25:38.690Z,101107.91
2023-02-22T17:28:11.329Z,101116.06
2023-02-22T17:30:45.233Z,101118.81
2023-02-22T17:33:19.125Z,101126.28
2023-02-22T17:35:53.829Z,101124.19
2023-02-22T17:38:29.026Z,101128.09
2023-02-22T17:41:01.917Z,101127.66
2023-02-22T17:43:36.037Z,101129.63
2023-02-22T17:46:09.079Z,101130.31
2023-02-22T17:48:41.917Z,101127.94
2023-02-22T17:51:16.221Z,101128.25
2023-02-22T17:53:48.849Z,101136.03
2023-02-22T17:56:21.655Z,101141.06
2023-02-22T17:58:55.550Z,101143.81
2023-02-22T18:01:29.703Z,101140.56
2023-02-22T18:04:03.582Z,101146.81
2023-02-22T18:06:40.251Z,101152.31
2023-02-22T18:09:14.568Z,101151.16
2023-02-22T18:11:47.664Z,101152.75
2023-02-22T18:14:20.484Z,101151.94
2023-02-22T18:16:53.246Z,101149.88
2023-02-22T18:19:25.946Z,101149.94
2023-02-22T18:22:03.230Z,101150.28
2023-02-22T18:24:35.822Z,101159.38
2023-02-22T18:27:08.515Z,101163.25
2023-02-22T18:29:41.452Z,101157.00
2023-02-22T18:32:17.102Z,101164.84
2023-02-22T18:34:50.051Z,101161.69
2023-02-22T18:37:28.085Z,101161.31
2023-02-22T18:40:00.838Z,101163.63
2023-02-22T18:42:33.491Z,101172.56
2023-02-22T18:45:06.886Z,101167.16
2023-02-22T18:47:39.914Z,101163.56
2023-02-22T18:50:13.767Z,101159.66
2023-02-22T18:52:47.722Z,101163.09
2023-02-22T18:55:21.779Z,101158.34
2023-02-22T18:57:55.834Z,101162.78
2023-02-22T19:00:28.729Z,101160.81
2023-02-22T19:03:01.749Z,101159.22
2023-02-22T19:05:36.367Z,101160.81
2023-02-22T19:08:11.357Z,101158.09
2023-02-22T19:10:44.576Z,101158.34
2023-02-22T19:13:17.288Z,101155.25
2023-02-22T19:15:50.055Z,101157.19
2023-02-22T19:18:23.698Z,101159.50
2023-02-22T19:20:56.994Z,101154.47
2023-02-22T19:23:34.477Z,101160.38
2023-02-22T19:26:09.354Z,101153.56
2023-02-22T19:28:42.301Z,101157.94
2023-02-22T19:31:15.828Z,101166.94
2023-02-22T19:33:51.281Z,101166.56
2023-02-22T19:36:24.219Z,101160.66
2023-02-22T19:39:01.617Z,101164.53
2023-02-22T19:41:34.499Z,101162.16
2023-02-22T19:44:07.669Z,101157.47
2023-02-22T19:46:41.175Z,101162.94
2023-02-22T19:49:13.986Z,101170.00
2023-02-22T19:51:46.740Z,101176.22
2023-02-22T19:54:21.571Z,101180.53
2023-02-22T19:56:54.568Z,101178.53
2023-02-22T19:59:27.517Z,101189.53
2023-02-22T20:02:00.042Z,101189.91
2023-02-22T20:04:34.166Z,101183.22
2023-02-22T20:07:07.200Z,101189.13
2023-02-22T20:09:43.177Z,101185.59
2023-02-22T20:12:16.573Z,101190.28
2023-02-22T20:14:49.274Z,101186.00
2023-02-22T20:17:21.950Z,101194.53
2023-02-22T20:19:54.781Z,101196.44
2023-02-22T20:22:27.528Z,101194.06
2023-02-22T20:25:01.700Z,101198.75
2023-02-22T20:27:35.132Z,101196.81
2023-02-22T20:30:09.929Z,101206.19
2023-02-22T20:32:42.759Z,101203.88
2023-02-22T20:35:16.545Z,101196.72
2023-02-22T20:37:49.243Z,101201.84
2023-02-22T20:40:23.497Z,101194.00
2023-02-22T20:42:57.069Z,101198.69
2023-02-22T20:45:32.304Z,101197.53
2023-02-22T20:48:05.490Z,101202.28
2023-02-22T20:50:38.193Z,101201.13
2023-02-22T20:53:10.951Z,101199.53
2023-02-22T20:55:50.362Z,101203.88
2023-02-22T20:58:30.444Z,101200.78
2023-02-22T21:01:06.318Z,101208.47
2023-02-22T21:03:39.442Z,101204.16
2023-02-22T21:06:15.402Z,101202.63
2023-02-22T21:08:50.795Z,101205.00
2023-02-22T21:11:26.556Z,101197.97
2023-02-22T21:14:00.102Z,101204.16
2023-02-22T21:16:33.847Z,101204.66
2023-02-22T21:19:07.935Z,101203.38
2023-02-22T21:21:40.731Z,101205.63
2023-02-22T21:24:13.716Z,101202.56
2023-02-22T21:26:47.803Z,101206.91
2023-02-22T21:29:20.814Z,101213.59
2023-02-22T21:31:53.745Z,101209.53
2023-02-22T21:34:26.658Z,101202.41
2023-02-22T21:36:59.318Z,101204.84
2023-02-22T21:39:32.265Z,101204.06
2023-02-22T21:42:07.384Z,101199.84
2023-02-22T21:44:40.166Z,101207.94
2023-02-22T21:47:12.872Z,101204.00
2023-02-22T21:49:45.757Z,101214.94
2023-02-22T21:52:18.565Z,101209.47
2023-02-22T21:54:51.259Z,101205.94
2023-02-22T21:57:26.205Z,101206.25
2023-02-22T21:59:58.897Z,101204.00
2023-02-22T22:02:32.720Z,101210.63
2023-02-22T22:05:06.010Z,101209.00
2023-02-22T22:07:38.659Z,101207.78
2023-02-22T22:10:18.374Z,101211.66
2023-02-22T22:12:52.898Z,101209.28
2023-02-22T22:15:25.670Z,101212.72
2023-02-22T22:18:05.495Z,101211.56
2023-02-22T22:20:39.035Z,101211.25
2023-02-22T22:23:12.396Z,101215.56
2023-02-22T22:25:45.048Z,101212.47
2023-02-22T22:28:19.019Z,101217.03
2023-02-22T22:30:51.711Z,101212.81
2023-02-22T22:33:24.440Z,101210.69
2023-02-22T22:35:57.932Z,101208.50
2023-02-22T22:38:30.855Z,101216.63
2023-02-22T22:41:05.590Z,101211.50
2023-02-22T22:43:41.241Z,101219.78
2023-02-22T22:46:14.552Z,101217.03
2023-02-22T22:48:47.725Z,101206.03
2023-02-22T22:51:21.769Z,101205.31
2023-02-22T22:53:54.782Z,101210.78
2023-02-22T22:56:27.832Z,101211.56
2023-02-22T22:59:07.455Z,101217.03
2023-02-22T23:01:44.176Z,101215.47
2023-02-22T23:04:17.830Z,101212.28
2023-02-22T23:06:51.503Z,101215.75
2023-02-22T23:09:25.187Z,101214.66
2023-02-22T23:12:08.496Z,101218.66
2023-02-22T23:14:44.357Z,101221.28
2023-02-22T23:17:30.791Z,101229.44
2023-02-22T23:20:11.159Z,101222.88
2023-02-22T23:22:47.169Z,101219.34
2023-02-22T23:25:20.186Z,101215.38
2023-02-22T23:27:54.744Z,101211.50
2023-02-22T23:30:30.629Z,101213.81
2023-02-22T23:33:03.541Z,101216.88
2023-02-22T23:35:36.374Z,101215.28
2023-02-22T23:38:11.186Z,101219.16
2023-02-22T23:40:44.757Z,101218.47
2023-02-22T23:43:17.435Z,101222.34
2023-02-22T23:45:56.571Z,101215.28
2023-02-22T23:48:30.113Z,101226.22
2023-02-22T23:51:09.285Z,101225.53
2023-02-22T23:53:45.994Z,101234.13
2023-02-22T23:56:22.175Z,101237.66
2023-02-22T23:58:57.473Z,101237.53
